Time;durP1;ratioP1;P1;durP2;ratioP2;P2;SDS_P1;SDS_P2;PMS_P1;PMS_P2;Temp;Humidity;BMP_temperature;BMP_pressure;BME280_temperature;BME280_humidity;BME280_pressure;Samples;Min_cycle;Max_cycle;Signal;HPM_P1;HPM_P2
2022/11/10 00:02:23;;;;;;;4.37;1.40;;;;;;;8.68;93.22;101634.91;5056321;28;20029;-86
2022/11/10 00:04:49;;;;;;;2.30;1.40;;;;;;;8.66;93.80;101647.00;5056725;28;20029;-87
2022/11/10 00:07:14;;;;;;;3.97;1.70;;;;;;;8.62;94.63;101637.50;5055479;28;20035;-86
2022/11/10 00:09:39;;;;;;;3.30;1.50;;;;;;;8.60;93.75;101644.38;5056679;28;20037;-87
2022/11/10 00:12:04;;;;;;;6.70;1.83;;;;;;;8.57;93.95;101642.63;5056168;28;20039;-86
2022/11/10 00:17:14;;;;;;;7.18;1.90;;;;;;;8.58;94.83;101643.50;5056078;28;20047;-86
2022/11/10 00:19:39;;;;;;;4.70;1.87;;;;;;;8.59;93.97;101640.94;5055352;28;20025;-86
2022/11/10 00:22:04;;;;;;;6.83;2.07;;;;;;;8.56;95.92;101635.72;5055914;28;20025;-86
2022/11/10 00:24:29;;;;;;;4.47;1.90;;;;;;;8.53;95.93;101638.28;5056634;28;20047;-85
2022/11/10 00:26:55;;;;;;;5.63;1.90;;;;;;;8.52;95.26;101639.16;5055372;28;20025;-86
2022/11/10 00:29:21;;;;;;;3.97;1.80;;;;;;;8.50;95.92;101646.91;5055827;28;20021;-86
2022/11/10 00:31:46;;;;;;;3.65;1.98;;;;;;;8.49;95.17;101652.94;5035951;28;20597;-86
2022/11/10 00:34:14;;;;;;;3.43;1.60;;;;;;;8.48;95.79;101656.38;5035161;28;20112;-86
2022/11/10 00:36:40;;;;;;;5.13;2.20;;;;;;;8.48;95.23;101664.13;5036284;28;20026;-86
2022/11/10 00:39:05;;;;;;;4.00;1.93;;;;;;;8.48;95.61;101671.91;5036147;28;20021;-86
2022/11/10 00:41:30;;;;;;;1.77;1.23;;;;;;;8.48;94.88;101671.03;5035454;28;20029;-86
2022/11/10 00:43:56;;;;;;;2.80;1.30;;;;;;;8.48;94.86;101669.31;5036383;28;20061;-86
2022/11/10 00:46:22;;;;;;;6.53;1.90;;;;;;;8.48;95.38;101676.22;5035857;28;20041;-87
2022/11/10 00:48:47;;;;;;;3.72;1.58;;;;;;;8.44;95.32;101683.06;5035625;28;20151;-87
2022/11/10 00:51:24;;;;;;;5.25;1.88;;;;;;;8.45;95.59;101682.19;5036361;28;20017;-87
2022/11/10 00:53:50;;;;;;;2.33;1.65;;;;;;;8.44;94.50;101670.13;5035914;28;20041;-87
2022/11/10 00:56:16;;;;;;;2.70;1.60;;;;;;;8.45;94.67;101679.59;5035174;28;20026;-86
2022/11/10 00:58:42;;;;;;;2.77;1.40;;;;;;;8.43;94.92;101678.75;5035696;28;20021;-86
2022/11/10 01:01:08;;;;;;;3.33;1.80;;;;;;;8.44;95.58;101674.44;5035480;28;20803;-86
2022/11/10 01:03:34;;;;;;;2.57;1.40;;;;;;;8.43;95.80;101677.88;5035167;28;20024;-86
2022/11/10 01:06:08;;;;;;;3.80;1.57;;;;;;;8.42;96.16;101677.00;5035804;28;20048;-86
2022/11/10 01:08:34;;;;;;;4.18;1.60;;;;;;;8.40;95.93;101681.31;5035741;28;20021;-85
2022/11/10 01:11:04;;;;;;;3.83;1.80;;;;;;;8.39;96.08;101681.31;5034767;28;20385;-86
2022/11/10 01:13:30;;;;;;;2.55;1.73;;;;;;;8.38;96.85;101679.56;5074357;22;20198;-85
2022/11/10 01:15:56;;;;;;;3.70;1.90;;;;;;;8.37;96.42;101683.84;5074574;28;20029;-85
2022/11/10 01:18:21;;;;;;;4.40;1.88;;;;;;;8.37;96.64;101686.44;5075186;28;20301;-86
2022/11/10 01:20:50;;;;;;;2.80;1.70;;;;;;;8.37;95.93;101689.03;5075078;28;20396;-86
2022/11/10 01:23:16;;;;;;;1.40;1.10;;;;;;;8.38;95.62;101692.50;5074214;28;20028;-86
2022/11/10 01:25:42;;;;;;;2.13;1.70;;;;;;;8.37;95.60;101709.72;5075459;28;20376;-86
2022/11/10 01:28:07;;;;;;;2.13;1.30;;;;;;;8.36;95.67;101710.56;5074919;28;20016;-85
2022/11/10 01:30:32;;;;;;;2.03;1.40;;;;;;;8.36;95.68;101708.00;5074196;28;20395;-85
2022/11/10 01:32:57;;;;;;;2.37;1.40;;;;;;;8.34;96.08;101714.88;5075313;28;20052;-86
2022/11/10 01:35:23;;;;;;;2.72;1.65;;;;;;;8.33;95.85;101720.91;5075087;28;20094;-86
2022/11/10 01:37:50;;;;;;;1.90;1.33;;;;;;;8.30;95.75;101716.56;5074089;28;20035;-86
2022/11/10 01:40:15;;;;;;;2.53;1.75;;;;;;;8.33;95.91;101723.50;5074638;28;20021;-85
2022/11/10 01:42:48;;;;;;;3.57;1.73;;;;;;;8.33;96.84;101726.94;5074987;28;20086;-86
2022/11/10 01:45:42;;;;;;;3.78;1.58;;;;;;;8.34;96.28;101720.03;5073665;28;20025;-86
2022/11/10 01:48:13;;;;;;;3.90;1.73;;;;;;;8.32;96.76;101725.22;5067229;28;20039;-86
2022/11/10 01:50:40;;;;;;;3.08;1.80;;;;;;;8.33;96.61;101718.34;5074545;28;20060;-86
2022/11/10 01:53:10;;;;;;;3.50;1.60;;;;;;;8.31;97.12;101713.13;5073724;28;20029;-86
2022/11/10 01:55:38;;;;;;;4.82;1.58;;;;;;;8.31;97.01;101722.63;5074465;28;20491;-85
2022/11/10 01:58:04;;;;;;;1.98;1.52;;;;;;;8.28;96.34;101723.44;5073884;28;20029;-86
2022/11/10 02:00:29;;;;;;;1.75;1.38;;;;;;;8.29;96.44;101713.97;5074667;28;20488;-87
2022/11/10 02:03:01;;;;;;;2.53;1.40;;;;;;;8.29;95.98;101720.00;5074383;28;20056;-89
2022/11/10 02:05:26;;;;;;;6.60;2.35;;;;;;;8.27;97.29;101720.84;5073696;28;20025;-86
2022/11/10 02:07:52;;;;;;;5.70;2.07;;;;;;;8.27;97.41;101715.69;5074479;28;20031;-87
2022/11/10 02:10:19;;;;;;;4.70;2.00;;;;;;;8.27;96.39;101720.84;5074112;28;20028;-86
2022/11/10 02:12:46;;;;;;;4.03;1.88;;;;;;;8.28;97.12;101720.84;5073875;28;20119;-86
2022/11/10 02:15:14;;;;;;;5.47;1.65;;;;;;;8.27;97.11;101720.84;5074305;28;20036;-86
2022/11/10 02:17:40;;;;;;;3.72;1.50;;;;;;;8.27;96.44;101731.19;5073761;28;20029;-86
2022/11/10 02:20:09;;;;;;;3.35;1.40;;;;;;;8.25;96.61;101722.56;5073447;28;20024;-86
2022/11/10 02:22:35;;;;;;;2.00;1.40;;;;;;;8.25;96.71;101725.13;5073862;28;20028;-86
2022/11/10 02:25:01;;;;;;;2.47;1.30;;;;;;;8.24;96.62;101736.34;5073068;28;20440;-86
2022/11/10 02:27:27;;;;;;;2.25;1.20;;;;;;;8.26;96.06;101739.81;5073139;28;20020;-86
2022/11/10 02:29:52;;;;;;;2.53;1.50;;;;;;;8.25;96.75;101748.41;5073750;28;20024;-86
2022/11/10 02:32:17;;;;;;;6.20;2.13;;;;;;;8.25;97.46;101749.28;5073816;28;20067;-86
2022/11/10 02:34:43;;;;;;;4.05;1.70;;;;;;;8.28;97.26;101753.63;5072973;28;20103;-86
2022/11/10 02:37:11;;;;;;;3.10;1.77;;;;;;;8.28;97.13;101771.72;5073601;28;20024;-87
2022/11/10 02:39:37;;;;;;;3.90;1.60;;;;;;;8.27;96.86;101767.41;5073983;28;20078;-86
2022/11/10 02:42:03;;;;;;;1.73;1.20;;;;;;;8.29;96.39;101781.22;5072689;28;20399;-86
2022/11/10 02:44:28;;;;;;;2.13;1.50;;;;;;;8.26;97.36;101773.44;5073301;28;20017;-86
2022/11/10 02:46:53;;;;;;;2.47;1.50;;;;;;;8.26;96.92;101776.00;5073824;28;20036;-86
2022/11/10 02:49:19;;;;;;;1.50;1.38;;;;;;;8.25;96.46;101774.28;5072327;28;20362;-86
2022/11/10 02:51:44;;;;;;;4.00;1.70;;;;;;;8.22;97.33;101774.28;5073508;28;20115;-86
2022/11/10 02:54:09;;;;;;;3.00;1.50;;;;;;;8.21;97.38;101775.13;5073028;28;20377;-86
2022/11/10 02:56:35;;;;;;;2.87;1.53;;;;;;;8.18;97.83;101766.47;5072626;28;20492;-86
2022/11/10 02:59:00;;;;;;;5.00;1.70;;;;;;;8.21;96.94;101777.69;5073375;28;20040;-86
2022/11/10 03:01:26;;;;;;;3.57;1.70;;;;;;;8.16;97.78;101768.19;5072090;28;20028;-86
2022/11/10 03:03:51;;;;;;;3.13;1.50;;;;;;;8.15;97.25;101776.78;5073614;28;20045;-86
2022/11/10 03:06:16;;;;;;;2.43;1.60;;;;;;;8.14;97.31;101782.81;5072802;28;20032;-86
2022/11/10 03:08:42;;;;;;;2.30;1.40;;;;;;;8.13;96.84;101786.22;5072627;28;20071;-86
2022/11/10 03:11:07;;;;;;;3.70;1.60;;;;;;;8.11;97.33;101784.50;5072510;28;20040;-86
2022/11/10 03:13:32;;;;;;;3.63;1.47;;;;;;;8.09;97.18;101789.66;5072829;28;20052;-86
2022/11/10 03:15:58;;;;;;;3.23;1.60;;;;;;;8.08;96.95;101782.75;5072539;28;20036;-87
2022/11/10 03:18:23;;;;;;;3.42;1.45;;;;;;;8.11;96.93;101787.94;5072811;28;20043;-86
2022/11/10 03:20:49;;;;;;;1.83;1.40;;;;;;;8.08;96.43;101795.69;5073006;28;20024;-86
2022/11/10 03:23:16;;;;;;;2.33;1.27;;;;;;;8.07;96.89;101798.22;5071826;28;20021;-86
2022/11/10 03:25:42;;;;;;;3.40;1.35;;;;;;;8.07;97.15;101798.22;5072605;28;20028;-86
2022/11/10 03:28:08;;;;;;;3.97;1.53;;;;;;;8.04;97.24;101804.25;5072678;28;20388;-86
2022/11/10 03:30:34;;;;;;;3.08;1.33;;;;;;;8.04;96.92;101809.41;5072169;28;20415;-86
2022/11/10 03:32:59;;;;;;;4.35;1.73;;;;;;;8.01;97.63;101806.78;5073032;28;20020;-87
2022/11/10 03:35:25;;;;;;;4.43;1.70;;;;;;;8.01;97.78;101817.13;5072345;28;20074;-87
2022/11/10 03:37:51;;;;;;;2.83;1.63;;;;;;;7.98;97.80;101824.88;5073310;28;20432;-87
2022/11/10 03:40:16;;;;;;;5.57;1.87;;;;;;;7.93;97.66;101829.09;5073042;28;20056;-86
2022/11/10 03:42:45;;;;;;;5.55;1.70;;;;;;;7.91;97.78;101835.97;5072418;28;20021;-86
2022/11/10 03:45:12;;;;;;;3.38;1.60;;;;;;;7.89;97.39;101835.97;5071753;28;20465;-86
2022/11/10 03:47:37;;;;;;;1.75;1.30;;;;;;;7.86;97.63;101839.38;5072543;28;20111;-86
2022/11/10 03:50:03;;;;;;;3.60;1.73;;;;;;;7.85;97.19;101839.34;5072577;28;20067;-86
2022/11/10 03:52:28;;;;;;;1.88;1.17;;;;;;;7.84;97.64;101850.53;5071812;28;20025;-86
2022/11/10 03:54:54;;;;;;;5.33;1.77;;;;;;;7.81;98.40;101853.97;5072693;28;20032;-86
2022/11/10 03:57:19;;;;;;;5.60;1.77;;;;;;;7.79;97.59;101847.91;5072792;28;20098;-86
2022/11/10 03:59:44;;;;;;;3.17;1.80;;;;;;;7.79;98.05;101850.47;5072257;28;20020;-86
2022/11/10 04:02:09;;;;;;;4.53;1.77;;;;;;;7.79;97.74;101853.06;5072350;28;20463;-86
2022/11/10 04:10:03;;;;;;;4.78;1.50;;;;;;;7.75;98.24;101860.75;5072690;28;20032;-86
2022/11/10 04:18:19;;;;;;;4.00;1.70;;;;;;;7.72;98.13;101880.53;5072612;28;20085;-86
2022/11/10 04:20:44;;;;;;;3.78;1.63;;;;;;;7.72;98.58;101871.94;5071469;28;20488;-86
2022/11/10 04:23:25;;;;;;;5.07;2.00;;;;;;;7.71;99.23;101883.13;5071894;28;20025;-86
2022/11/10 04:28:39;;;;;;;4.35;1.80;;;;;;;7.69;99.19;101896.03;5072825;28;20048;-86
2022/11/10 04:31:05;;;;;;;9.27;2.40;;;;;;;7.68;99.92;101895.97;5072081;28;20021;-87
2022/11/10 04:33:31;;;;;;;3.77;1.90;;;;;;;7.65;98.99;101902.00;5071738;28;20611;-86
2022/11/10 04:35:56;;;;;;;4.20;1.90;;;;;;;7.66;99.02;101902.84;5072440;28;20040;-86
2022/11/10 04:38:21;;;;;;;6.10;2.10;;;;;;;7.67;99.23;101912.34;5071790;28;20048;-86
2022/11/10 04:40:47;;;;;;;3.80;1.65;;;;;;;7.69;98.21;101913.22;5071577;28;20107;-86
2022/11/10 04:43:12;;;;;;;6.83;2.10;;;;;;;7.69;99.33;101916.69;5071908;28;20082;-86
2022/11/10 04:45:37;;;;;;;2.60;1.63;;;;;;;7.70;98.13;101921.03;5072389;28;20032;-86
2022/11/10 04:48:03;;;;;;;4.20;1.70;;;;;;;7.70;98.75;101925.31;5074008;28;20075;-86
2022/11/10 04:50:28;;;;;;;2.10;1.40;;;;;;;7.69;98.45;101929.63;5090984;28;20024;-86
2022/11/10 04:52:53;;;;;;;3.42;1.70;;;;;;;7.68;99.14;101929.56;5095725;28;20024;-85
2022/11/10 04:55:18;;;;;;;2.33;1.63;;;;;;;7.68;98.95;101939.91;5095217;28;20016;-86
2022/11/10 04:57:44;;;;;;;3.13;1.60;;;;;;;7.68;98.84;101938.22;5096039;28;20028;-86
2022/11/10 05:00:10;;;;;;;4.22;1.90;;;;;;;7.67;99.24;101941.63;5095456;28;20020;-86
2022/11/10 05:02:35;;;;;;;5.68;2.33;;;;;;;7.66;98.90;101939.91;5095079;28;20035;-86
2022/11/10 05:05:02;;;;;;;3.83;1.60;;;;;;;7.66;98.95;101944.19;5095578;28;20035;-86
2022/11/10 05:07:27;;;;;;;3.67;1.60;;;;;;;7.66;98.90;101946.75;5092823;28;20044;-86
2022/11/10 05:09:53;;;;;;;4.37;1.80;;;;;;;7.65;98.84;101945.91;5074980;28;20013;-85
2022/11/10 05:12:18;;;;;;;5.13;1.52;;;;;;;7.65;98.84;101956.25;5075611;28;20025;-85
2022/11/10 05:14:43;;;;;;;2.27;1.10;;;;;;;7.64;98.61;101956.25;5075141;28;20555;-84
2022/11/10 05:17:08;;;;;;;1.33;1.10;;;;;;;7.63;98.65;101951.91;5074249;28;20037;-84
2022/11/10 05:19:34;;;;;;;4.33;1.30;;;;;;;7.60;98.79;101960.47;5075153;28;20038;-84
2022/11/10 05:21:59;;;;;;;2.20;1.50;;;;;;;7.60;98.87;101962.19;5075627;28;20101;-84
2022/11/10 05:24:24;;;;;;;3.55;1.40;;;;;;;7.58;98.19;101959.59;5074501;28;20078;-84
2022/11/10 05:26:49;;;;;;;5.30;1.80;;;;;;;7.55;99.09;101955.22;5075021;28;20032;-84
2022/11/10 05:29:15;;;;;;;4.10;1.58;;;;;;;7.56;98.85;101961.28;5074315;28;20058;-84
2022/11/10 05:31:40;;;;;;;3.38;1.40;;;;;;;7.57;98.60;101961.28;5075085;28;20035;-84
2022/11/10 05:34:05;;;;;;;2.70;1.83;;;;;;;7.58;99.20;101963.03;5074859;28;20439;-85
2022/11/10 05:36:30;;;;;;;3.33;1.50;;;;;;;7.57;98.66;101955.28;5074005;28;20039;-84
2022/11/10 05:38:56;;;;;;;1.65;1.30;;;;;;;7.56;98.52;101948.38;5075202;28;20103;-84
2022/11/10 05:41:21;;;;;;;3.00;1.30;;;;;;;7.56;98.84;101953.53;5074811;28;20025;-84
2022/11/10 05:43:47;;;;;;;1.80;1.27;;;;;;;7.56;98.52;101954.38;5074112;28;20029;-84
2022/11/10 05:46:19;;;;;;;1.92;1.35;;;;;;;7.55;98.59;101959.53;5070765;28;20044;-84
2022/11/10 05:48:45;;;;;;;2.67;1.42;;;;;;;7.55;99.17;101965.56;5074888;28;20473;-84
2022/11/10 05:51:14;;;;;;;2.70;1.20;;;;;;;7.55;99.12;101981.06;5074020;28;20020;-84
2022/11/10 05:53:51;;;;;;;4.15;1.67;;;;;;;7.53;98.96;101979.31;5074235;28;20350;-84
2022/11/10 05:56:22;;;;;;;6.95;2.17;;;;;;;7.51;99.52;101981.00;5074446;28;20504;-85
2022/11/10 05:58:48;;;;;;;2.72;1.50;;;;;;;7.48;99.21;101976.66;5072599;28;20109;-84
2022/11/10 06:01:13;;;;;;;3.50;1.47;;;;;;;7.48;99.27;101983.56;5074143;28;20070;-84
2022/11/10 06:03:45;;;;;;;4.50;1.70;;;;;;;7.45;99.17;101981.75;5074415;28;20033;-84
2022/11/10 06:06:17;;;;;;;4.13;1.67;;;;;;;7.46;99.12;101987.81;5073471;28;20170;-84
2022/11/10 06:08:42;;;;;;;5.22;1.92;;;;;;;7.45;100.00;101999.84;5074454;28;20551;-85
2022/11/10 06:11:08;;;;;;;2.70;1.90;;;;;;;7.41;100.00;102009.25;5073983;28;20044;-84
2022/11/10 06:13:33;;;;;;;3.67;1.63;;;;;;;7.40;99.19;102006.66;5072836;28;20171;-84
2022/11/10 06:16:08;;;;;;;2.38;1.48;;;;;;;7.38;99.39;102005.78;5074114;28;20393;-85
2022/11/10 06:18:33;;;;;;;2.75;1.70;;;;;;;7.38;99.25;102006.63;5073632;28;20043;-84
2022/11/10 06:21:04;;;;;;;2.27;1.30;;;;;;;7.38;99.42;102001.47;5074006;28;20029;-84
2022/11/10 06:23:29;;;;;;;2.88;1.33;;;;;;;7.40;99.51;102007.53;5074100;28;20020;-83
2022/11/10 06:25:54;;;;;;;3.60;1.60;;;;;;;7.40;100.00;102009.25;5073162;28;20035;-83
2022/11/10 06:28:20;;;;;;;4.03;1.70;;;;;;;7.39;99.97;102003.19;5073608;28;20115;-83
2022/11/10 06:30:45;;;;;;;3.33;1.40;;;;;;;7.42;99.57;102012.72;5073635;28;20024;-83
2022/11/10 06:33:10;;;;;;;3.10;1.50;;;;;;;7.40;99.80;102014.41;5072627;28;20028;-83
2022/11/10 06:35:36;;;;;;;2.10;1.30;;;;;;;7.40;99.81;102024.75;5073820;28;20039;-83
2022/11/10 06:38:04;;;;;;;3.47;1.52;;;;;;;7.39;99.77;102036.78;5073254;28;20572;-83
2022/11/10 06:40:30;;;;;;;1.50;1.30;;;;;;;7.40;99.62;102040.25;5073109;28;20381;-83
2022/11/10 06:42:56;;;;;;;2.45;1.30;;;;;;;7.39;100.00;102047.09;5073714;28;20048;-83
2022/11/10 06:45:22;;;;;;;2.70;1.70;;;;;;;7.39;99.94;102054.00;5073510;28;20033;-83
2022/11/10 06:47:48;;;;;;;4.22;1.50;;;;;;;7.39;99.82;102056.59;5072510;28;20385;-83
2022/11/10 06:50:13;;;;;;;1.80;1.38;;;;;;;7.39;99.65;102065.19;5073082;28;20035;-83
2022/11/10 06:52:39;;;;;;;3.50;1.55;;;;;;;7.39;99.68;102067.78;5073819;28;20020;-83
2022/11/10 06:55:04;;;;;;;2.33;1.38;;;;;;;7.39;99.58;102066.91;5072003;28;20067;-82
2022/11/10 06:57:37;;;;;;;3.57;1.30;;;;;;;7.41;99.89;102071.25;5073405;28;20070;-83
2022/11/10 07:00:03;;;;;;;5.50;1.88;;;;;;;7.40;99.96;102082.44;5073204;28;20029;-82
2022/11/10 07:02:28;;;;;;;4.90;1.75;;;;;;;7.41;100.00;102080.72;5072922;28;20048;-83
2022/11/10 07:04:55;;;;;;;2.70;1.63;;;;;;;7.40;100.00;102079.84;5072039;28;20052;-83
2022/11/10 07:07:20;;;;;;;5.38;1.75;;;;;;;7.39;100.00;102083.25;5072838;28;20028;-83
2022/11/10 07:09:45;;;;;;;3.97;1.70;;;;;;;7.40;100.00;102090.19;5071976;28;20029;-84
2022/11/10 07:12:10;;;;;;;4.72;1.67;;;;;;;7.40;100.00;102085.00;5072727;28;20063;-84
2022/11/10 07:14:36;;;;;;;5.57;1.80;;;;;;;7.40;100.00;102090.19;5071772;28;20036;-83
2022/11/10 07:17:01;;;;;;;4.15;1.60;;;;;;;7.42;100.00;102100.56;5073048;28;20033;-86
2022/11/10 07:19:26;;;;;;;2.97;1.60;;;;;;;7.42;100.00;102101.41;5072290;28;20021;-84
2022/11/10 07:21:52;;;;;;;3.07;1.33;;;;;;;7.44;100.00;102105.75;5072159;28;20103;-85
2022/11/10 07:24:17;;;;;;;5.35;1.77;;;;;;;7.45;100.00;102108.34;5072365;28;20021;-84
2022/11/10 07:26:42;;;;;;;3.20;1.20;;;;;;;7.47;100.00;102119.56;5072945;28;20033;-85
2022/11/10 07:29:08;;;;;;;6.13;1.60;;;;;;;7.47;100.00;102122.16;5071549;28;20078;-84
2022/11/10 07:31:33;;;;;;;4.07;1.60;;;;;;;7.49;100.00;102132.50;5072923;28;20024;-84
2022/11/10 07:33:58;;;;;;;3.33;1.48;;;;;;;7.50;100.00;102132.56;5072842;28;20119;-85
2022/11/10 07:36:27;;;;;;;4.00;1.73;;;;;;;7.52;100.00;102146.38;5071573;28;20028;-86
2022/11/10 07:38:53;;;;;;;2.90;1.40;;;;;;;7.54;100.00;102138.63;5071969;28;20021;-85
2022/11/10 07:41:18;;;;;;;2.17;1.50;;;;;;;7.56;100.00;102137.81;5072372;28;20073;-85
2022/11/10 07:43:43;;;;;;;2.90;1.58;;;;;;;7.58;100.00;102136.13;5072577;28;20028;-85
2022/11/10 07:46:09;;;;;;;3.67;1.70;;;;;;;7.62;100.00;102139.63;5072098;28;20045;-85
2022/11/10 07:48:34;;;;;;;5.07;2.00;;;;;;;7.65;100.00;102134.53;5072643;28;20028;-85
2022/11/10 07:50:59;;;;;;;6.30;2.10;;;;;;;7.68;100.00;102134.59;5072173;28;20031;-85
2022/11/10 07:53:25;;;;;;;4.70;1.80;;;;;;;7.71;100.00;102132.03;5072348;28;20028;-85
2022/11/10 07:55:50;;;;;;;4.57;2.00;;;;;;;7.76;100.00;102136.44;5072380;28;20534;-85
2022/11/10 07:58:17;;;;;;;6.35;2.28;;;;;;;7.79;100.00;102145.09;5071493;28;20107;-85
2022/11/10 08:00:43;;;;;;;5.53;2.00;;;;;;;7.85;100.00;102144.34;5072613;28;20468;-85
2022/11/10 08:03:15;;;;;;;6.05;2.50;;;;;;;7.89;100.00;102159.94;5072417;28;20035;-85
2022/11/10 08:05:40;;;;;;;5.97;2.10;;;;;;;7.95;100.00;102159.16;5071923;28;20033;-85
2022/11/10 08:08:06;;;;;;;7.07;2.30;;;;;;;7.99;100.00;102152.34;5072562;28;20369;-85
2022/11/10 08:10:32;;;;;;;4.40;2.00;;;;;;;8.04;100.00;102161.03;5072277;28;20040;-84
2022/11/10 08:13:00;;;;;;;7.97;2.22;;;;;;;8.18;100.00;102176.75;5071436;28;20067;-85
2022/11/10 08:15:27;;;;;;;7.60;2.30;;;;;;;8.16;100.00;102179.34;5072451;28;20021;-85
2022/11/10 08:18:00;;;;;;;7.68;2.95;;;;;;;8.24;100.00;102188.94;5071681;28;20031;-85
2022/11/10 08:20:26;;;;;;;5.63;2.05;;;;;;;8.31;100.00;102190.78;5072128;28;20104;-85
2022/11/10 08:22:59;;;;;;;6.93;2.20;;;;;;;8.38;100.00;102189.16;5075541;28;20511;-85
2022/11/10 08:25:26;;;;;;;7.30;2.40;;;;;;;8.47;100.00;102178.94;5074127;28;20036;-85
2022/11/10 08:28:20;;;;;;;7.47;2.55;;;;;;;8.54;100.00;102190.31;5076362;28;20029;-85
2022/11/10 08:30:46;;;;;;;7.22;2.70;;;;;;;8.65;100.00;102194.78;5062968;28;20370;-86
2022/11/10 08:33:16;;;;;;;7.40;2.50;;;;;;;8.73;100.00;102197.47;5074969;28;20044;-85
2022/11/10 08:35:43;;;;;;;9.70;2.80;;;;;;;8.80;100.00;102195.84;5076430;28;20064;-85
2022/11/10 08:38:20;;;;;;;4.93;2.03;;;;;;;8.89;100.00;102195.97;5075811;28;20025;-85
2022/11/10 08:40:45;;;;;;;6.80;2.63;;;;;;;9.00;100.00;102190.06;5070324;28;20040;-85
2022/11/10 08:43:12;;;;;;;8.47;2.40;;;;;;;9.08;100.00;102194.50;5075873;28;20021;-85
2022/11/10 08:45:40;;;;;;;6.85;2.63;;;;;;;9.19;100.00;102196.34;5075833;28;20021;-85
2022/11/10 08:48:09;;;;;;;7.95;2.65;;;;;;;9.27;100.00;102203.38;5074503;28;20081;-84
2022/11/10 08:50:35;;;;;;;9.20;2.60;;;;;;;9.34;99.55;102199.13;5075559;28;20024;-85
2022/11/10 08:53:02;;;;;;;8.32;2.38;;;;;;;9.42;99.79;102210.44;5075652;28;20025;-85
2022/11/10 08:55:28;;;;;;;5.63;2.22;;;;;;;9.50;99.21;102215.72;5075376;28;20032;-86
2022/11/10 08:57:58;;;;;;;6.17;2.10;;;;;;;9.59;99.12;102217.50;5075617;28;20021;-86
2022/11/10 09:00:24;;;;;;;7.72;2.50;;;;;;;9.68;98.40;102214.16;5074403;28;20031;-85
2022/11/10 09:02:50;;;;;;;8.13;2.33;;;;;;;9.77;98.83;102222.03;5076117;28;20025;-85
2022/11/10 09:05:16;;;;;;;10.23;2.72;;;;;;;9.87;98.57;102229.03;5074219;28;20352;-86
2022/11/10 09:07:43;;;;;;;9.07;2.70;;;;;;;9.97;98.05;102230.00;5075781;28;20516;-86
2022/11/10 09:10:08;;;;;;;8.88;2.30;;;;;;;10.07;97.90;102232.69;5076975;28;20143;-87
2022/11/10 09:12:35;;;;;;;7.10;2.20;;;;;;;10.15;97.95;102234.50;5075641;28;20067;-86
2022/11/10 09:15:00;;;;;;;;;;;;;;;10.25;97.37;102232.84;5074876;28;20109;-86
2022/11/10 09:17:26;;;;;;;5.33;2.00;;;;;;;10.31;97.15;102232.91;5075015;28;19916;-86
2022/11/10 09:19:51;;;;;;;9.00;2.43;;;;;;;10.41;96.40;102243.38;5075061;28;20476;-85
2022/11/10 09:22:16;;;;;;;8.63;2.63;;;;;;;10.48;94.79;102238.25;5074377;28;20099;-85
2022/11/10 09:24:41;;;;;;;9.60;2.90;;;;;;;10.54;94.28;102245.22;5074912;28;20492;-86
2022/11/10 09:27:07;;;;;;;10.97;2.73;;;;;;;10.62;94.77;102251.34;5074893;28;20031;-85
2022/11/10 09:29:32;;;;;;;8.73;2.43;;;;;;;10.68;94.49;102234.94;5073985;28;20036;-86
2022/11/10 09:31:57;;;;;;;9.93;2.53;;;;;;;10.77;94.45;102244.50;5075254;28;20028;-86
2022/11/10 09:34:22;;;;;;;8.07;2.40;;;;;;;10.85;94.52;102237.63;5074507;28;20098;-86
2022/11/10 09:36:48;;;;;;;8.40;2.33;;;;;;;10.94;94.63;102247.22;5074333;28;20124;-85
2022/11/10 09:39:14;;;;;;;8.67;2.50;;;;;;;11.06;94.58;102243.81;5074689;28;20028;-86
2022/11/10 09:41:42;;;;;;;8.07;2.43;;;;;;;11.15;93.99;102246.44;5074845;28;20143;-86
2022/11/10 09:44:45;;;;;;;6.50;2.15;;;;;;;11.26;93.01;102247.34;5073944;28;20115;-85
2022/11/10 09:47:22;;;;;;;7.30;2.70;;;;;;;11.34;92.56;102254.34;5064767;28;20071;-86
2022/11/10 09:49:57;;;;;;;8.93;2.50;;;;;;;11.44;92.34;102256.09;5074168;28;20032;-85
2022/11/10 09:52:25;;;;;;;6.60;2.40;;;;;;;11.53;91.75;102256.13;5074627;28;20536;-86
2022/11/10 09:54:57;;;;;;;6.43;2.25;;;;;;;11.63;92.46;102254.44;5074272;28;20024;-86
2022/11/10 09:57:25;;;;;;;7.25;2.40;;;;;;;11.70;91.64;102244.94;5073752;28;20442;-85
2022/11/10 09:59:51;;;;;;;3.80;2.00;;;;;;;11.79;92.55;102249.25;5074571;28;20389;-86
2022/11/10 10:02:34;;;;;;;3.20;1.90;;;;;;;11.90;90.78;102244.94;5074389;28;20378;-86
2022/11/10 10:05:29;;;;;;;6.47;2.20;;;;;;;11.99;90.26;102252.81;5073425;28;20032;-86
2022/11/10 10:08:03;;;;;;;8.25;2.47;;;;;;;12.05;87.55;102251.94;5074170;28;20016;-85
2022/11/10 10:10:40;;;;;;;7.85;2.30;;;;;;;12.12;89.97;102258.91;5073899;28;20483;-85
2022/11/10 10:13:40;;;;;;;;;;;;;;;12.21;88.93;102268.47;5074313;28;20045;-85
2022/11/10 10:16:30;;;;;;;12.25;2.80;;;;;;;12.27;87.41;102267.59;5031998;28;19924;-86
2022/11/10 10:19:04;;;;;;;11.00;2.72;;;;;;;12.36;88.05;102272.81;5071474;28;20032;-86
2022/11/10 10:22:05;;;;;;;7.78;2.30;;;;;;;12.48;88.32;102275.41;5074134;28;20028;-86
2022/11/10 10:24:32;;;;;;;7.30;2.38;;;;;;;12.52;87.70;102269.31;5073330;28;20392;-86
2022/11/10 10:27:02;;;;;;;5.20;2.00;;;;;;;12.62;88.83;102287.53;5073873;28;20202;-87
2022/11/10 10:29:38;;;;;;;8.75;2.35;;;;;;;12.74;87.92;102286.66;5074153;28;20504;-86
2022/11/10 10:32:08;;;;;;;8.70;2.30;;;;;;;12.83;87.24;102282.28;5072860;28;20060;-87
2022/11/10 10:34:35;;;;;;;4.70;1.90;;;;;;;12.90;87.65;102292.72;5073925;28;20020;-86
2022/11/10 10:37:00;;;;;;;3.72;1.83;;;;;;;12.94;86.66;102294.47;5074444;28;20024;-91
2022/11/10 10:39:43;;;;;;;5.33;1.87;;;;;;;13.01;86.54;102303.09;5073230;28;20385;-87
2022/11/10 10:42:22;;;;;;;6.68;2.25;;;;;;;13.08;86.35;102308.31;5073649;28;20025;-88
2022/11/10 10:45:19;;;;;;;4.88;2.10;;;;;;;13.14;85.32;102307.44;5073114;28;20036;-87
2022/11/10 10:47:48;;;;;;;7.93;2.45;;;;;;;13.16;84.62;102318.72;5073286;28;20024;-87
2022/11/10 10:50:33;;;;;;;7.47;2.20;;;;;;;13.18;82.60;102327.41;5073206;28;20052;-87
2022/11/10 10:53:19;;;;;;;4.43;1.95;;;;;;;13.19;84.97;102328.28;5073085;28;20361;-87
2022/11/10 10:56:20;;;;;;;4.72;1.90;;;;;;;13.26;84.19;102324.78;5073482;28;20017;-87
2022/11/10 10:58:54;;;;;;;10.55;3.20;;;;;;;13.30;80.45;102331.72;5073794;28;20029;-87
2022/11/10 11:01:22;;;;;;;8.25;2.60;;;;;;;13.27;83.07;102330.00;5072485;28;20036;-86
2022/11/10 11:03:50;;;;;;;4.97;1.92;;;;;;;13.32;83.82;102329.97;5073815;28;20044;-86
2022/11/10 11:06:15;;;;;;;5.45;1.95;;;;;;;13.34;83.02;102327.38;5073153;28;20384;-87
2022/11/10 11:09:04;;;;;;;7.03;1.87;;;;;;;13.36;81.72;102331.72;5073108;28;20028;-87
2022/11/10 11:11:38;;;;;;;7.70;2.33;;;;;;;13.35;82.00;102323.88;5073390;28;20024;-86
2022/11/10 11:14:14;;;;;;;6.05;1.80;;;;;;;13.36;82.26;102321.28;5071898;28;20510;-86
2022/11/10 11:17:00;;;;;;;5.90;1.95;;;;;;;13.38;83.34;102316.06;5073463;28;20029;-86
2022/11/10 11:19:34;;;;;;;4.53;2.00;;;;;;;13.41;82.68;102326.50;5073376;28;20090;-85
2022/11/10 11:22:12;;;;;;;6.88;1.90;;;;;;;13.43;81.27;102330.84;5072221;28;20059;-86
2022/11/10 11:24:55;;;;;;;4.57;1.70;;;;;;;13.47;80.76;102318.66;5073345;28;20107;-86
2022/11/10 11:27:38;;;;;;;6.65;2.08;;;;;;;13.50;82.74;102318.66;5072812;28;20029;-85
2022/11/10 11:30:07;;;;;;;6.60;1.80;;;;;;;13.57;81.74;102311.66;5071661;28;20024;-86
2022/11/10 11:33:01;;;;;;;4.82;1.90;;;;;;;13.65;82.40;102314.25;5072875;28;20384;-86
2022/11/10 11:35:55;;;;;;;4.53;1.52;;;;;;;13.75;81.74;102324.63;5072182;28;20435;-85
2022/11/10 11:38:32;;;;;;;5.72;1.60;;;;;;;13.84;80.27;102338.50;5072685;28;20043;-85
2022/11/10 11:41:11;;;;;;;6.32;1.80;;;;;;;13.88;80.31;102351.53;5071618;28;20075;-85
2022/11/10 11:44:07;;;;;;;5.05;1.75;;;;;;;13.92;79.92;102335.84;5072008;28;20016;-85
2022/11/10 11:46:38;;;;;;;2.95;1.30;;;;;;;13.94;82.15;102347.16;5072650;28;20098;-85
2022/11/10 11:49:21;;;;;;;5.28;1.83;;;;;;;13.89;79.99;102353.28;5071441;28;20021;-86
2022/11/10 11:52:24;;;;;;;7.00;1.80;;;;;;;13.85;80.64;102355.88;5073071;28;20596;-86
2022/11/10 11:55:34;;;;;;;4.57;1.60;;;;;;;13.79;80.36;102348.94;5073504;28;20119;-86
2022/11/10 11:58:21;;;;;;;4.03;1.38;;;;;;;13.75;80.91;102360.28;5069148;28;20090;-86